EGBB/BHX METAR and TAF weather

Enter ICAO airport designator
Station Type Date Time Source
EGBB METAR 2021/07/26 17:20 UTC NOAA

EGBB 261720Z 21004KT 140V280 CAVOK 25/12 Q1008


Station Type Date Time Source
EGBB Decoded METAR 2021/07/26 17:20 UTC NOAA

Birmingham / Airport, United Kingdom (EGBB) 52-27N 001-44W 0M
Jul 26, 2021 - 01:20 PM EDT / 2021.07.26 1720 UTC
Wind: from the SSW (210 degrees) at 5 MPH (4 KT) (direction variable):0
Visibility: greater than 7 mile(s):0
Temperature: 77 F (25 C)
Dew Point: 53 F (12 C)
Relative Humidity: 44%
Pressure (altimeter): 29.77 in. Hg (1008 hPa)
ob: EGBB 261720Z 21004KT 140V280 CAVOK 25/12 Q1008
cycle: 17

Station Type Date Time Source
EGBB TAF 2021/07/26 18:09 UTC NOAA

TAF EGBB 261656Z 2618/2718 26005KT 9999 SCT040 PROB30
TEMPO 2703/2712 7000 SHRA
BECMG 2712/2715 18010KT
TEMPO 2712/2718 7000 SHRA PROB30
TEMPO 2712/2718 4000 +SHRAGS

Example: see airport list